createdAt,value
2018-11-26T19:26:32.684Z,94749.47
2018-11-26T19:29:03.576Z,94749.65
2018-11-26T19:31:33.767Z,94747.44
2018-11-26T19:34:04.033Z,94747.52
2018-11-26T19:36:35.483Z,94755.81
2018-11-26T19:39:09.317Z,94758.55
2018-11-26T19:41:39.543Z,94762.81
2018-11-26T19:44:10.023Z,94762.33
2018-11-26T19:46:41.049Z,94766.73
2018-11-26T19:49:11.274Z,94766.19
2018-11-26T19:51:41.590Z,94767.31
2018-11-26T19:54:11.833Z,94773.78
2018-11-26T19:56:42.074Z,94772.46
2018-11-26T19:59:12.121Z,94780.12
2018-11-26T20:01:42.265Z,94783.17
2018-11-26T20:04:36.736Z,94784.91
2018-11-26T20:07:07.411Z,94783.98
2018-11-26T20:09:37.660Z,94786.69
2018-11-26T20:12:07.738Z,94790.77
2018-11-26T20:14:37.837Z,94791.30
2018-11-26T20:17:08.991Z,94794.68
2018-11-26T20:19:39.273Z,94804.02
2018-11-26T20:22:09.440Z,94796.75
2018-11-26T20:24:39.555Z,94802.22
2018-11-26T20:27:09.826Z,94804.89
2018-11-26T20:29:40.266Z,94805.75
2018-11-26T20:32:10.571Z,94808.27
2018-11-26T20:34:40.812Z,94803.13
2018-11-26T20:37:11.158Z,94815.16
2018-11-26T20:39:41.306Z,94816.05
2018-11-26T20:42:11.312Z,94809.19
2018-11-26T20:44:41.442Z,94807.57
2018-11-26T20:47:11.609Z,94812.69
2018-11-26T20:49:41.793Z,94812.64
2018-11-26T20:52:11.806Z,94812.19
2018-11-26T20:54:41.916Z,94816.02
2018-11-26T20:57:11.935Z,94824.35
2018-11-26T20:59:41.983Z,94821.33
2018-11-26T21:02:12.160Z,94816.61
2018-11-26T21:04:42.305Z,94822.62
2018-11-26T21:07:12.338Z,94825.53
2018-11-26T21:09:42.488Z,94826.25
2018-11-26T21:12:12.778Z,94828.86
2018-11-26T21:14:42.819Z,94827.06
2018-11-26T21:17:12.826Z,94828.77
2018-11-26T21:19:42.920Z,94839.48
2018-11-26T21:22:13.067Z,94832.19
2018-11-26T21:24:43.209Z,94838.70
2018-11-26T21:27:13.364Z,94843.38
2018-11-26T21:29:43.595Z,94838.26
2018-11-26T21:32:13.693Z,94839.97
2018-11-26T21:34:43.735Z,94835.38
2018-11-26T21:37:13.799Z,94840.53
2018-11-26T21:39:43.800Z,94838.39
2018-11-26T21:42:13.779Z,94837.66
2018-11-26T21:44:43.751Z,94846.59
2018-11-26T21:47:13.792Z,94846.56
2018-11-26T21:49:43.717Z,94850.17
2018-11-26T21:52:13.865Z,94863.57
2018-11-26T21:54:43.843Z,94859.69
2018-11-26T21:57:13.847Z,94859.62
2018-11-26T21:59:43.774Z,94860.02
2018-11-26T22:02:13.690Z,94860.02
2018-11-26T22:04:43.614Z,94864.37
2018-11-26T22:07:13.619Z,94867.81
2018-11-26T22:09:44.085Z,94871.37
2018-11-26T22:12:14.130Z,94869.24
2018-11-26T22:14:44.261Z,94874.34
2018-11-26T22:17:14.216Z,94882.39
2018-11-26T22:19:44.159Z,94880.75
2018-11-26T22:22:14.395Z,94888.80
2018-11-26T22:24:44.394Z,94887.98
2018-11-26T22:27:14.432Z,94888.82
2018-11-26T22:29:44.395Z,94889.64
2018-11-26T22:32:14.362Z,94896.45
2018-11-26T22:34:44.600Z,94897.34
2018-11-26T22:37:14.538Z,94905.11
2018-11-26T22:39:44.465Z,94908.59
2018-11-26T22:42:14.383Z,94906.42
2018-11-26T22:44:44.680Z,94912.92
2018-11-26T22:47:14.592Z,94915.54
2018-11-26T22:49:44.448Z,94919.34
2018-11-26T22:52:14.540Z,94920.60
2018-11-26T22:54:44.509Z,94921.52
2018-11-26T22:57:16.597Z,94927.12
2018-11-26T22:59:46.518Z,94921.03
2018-11-26T23:02:16.632Z,94926.60
2018-11-26T23:04:46.617Z,94927.91
2018-11-26T23:07:16.541Z,94934.78
2018-11-26T23:09:46.438Z,94933.92
2018-11-26T23:12:17.359Z,94938.64
2018-11-26T23:14:47.256Z,94932.69
2018-11-26T23:17:17.246Z,94934.38
2018-11-26T23:19:47.133Z,94931.86
2018-11-26T23:22:17.099Z,94934.84
2018-11-26T23:24:46.977Z,94946.81
2018-11-26T23:27:16.939Z,94941.22
2018-11-26T23:29:46.873Z,94942.46
2018-11-26T23:32:16.736Z,94950.56
2018-11-26T23:34:46.608Z,94944.52
2018-11-26T23:37:16.512Z,94947.17
2018-11-26T23:39:46.450Z,94949.24
2018-11-26T23:42:16.377Z,94949.29
2018-11-26T23:44:46.239Z,94946.70
2018-11-26T23:47:16.560Z,94947.95
2018-11-26T23:49:48.012Z,94952.72
2018-11-26T23:52:17.895Z,94954.84
2018-11-26T23:54:47.750Z,94950.13
2018-11-26T23:57:17.703Z,94959.17
2018-11-26T23:59:47.558Z,94956.92
